Time;durP1;ratioP1;P1;durP2;ratioP2;P2;SDS_P1;SDS_P2;PMS_P1;PMS_P2;Temp;Humidity;BMP_temperature;BMP_pressure;BME280_temperature;BME280_humidity;BME280_pressure;Samples;Min_cycle;Max_cycle;Signal;HPM_P1;HPM_P2
2022/01/17 00:00:43;;;;;;;24.35;12.85;;;;;;;-1.59;67.82;98876.30;1714033;82;21053;-42
2022/01/17 00:03:09;;;;;;;24.05;13.15;;;;;;;-1.56;67.79;98878.40;1753352;80;21129;-42
2022/01/17 00:05:36;;;;;;;23.10;12.65;;;;;;;-1.53;67.71;98871.16;1781548;79;21526;-42
2022/01/17 00:08:04;;;;;;;22.93;12.00;;;;;;;-1.50;67.49;98865.25;1799441;79;21049;-42
2022/01/17 00:10:33;;;;;;;25.77;10.88;;;;;;;-1.49;67.38;98861.52;1751355;80;21044;-42
2022/01/17 00:12:59;;;;;;;25.52;12.05;;;;;;;-1.46;67.38;98860.95;1769688;80;21096;-42
2022/01/17 00:15:32;;;;;;;24.32;11.83;;;;;;;-1.45;67.31;98862.50;1751705;80;21748;-42
2022/01/17 00:18:23;;;;;;;26.93;13.22;;;;;;;-1.45;67.30;98853.20;1787637;79;21013;-42
2022/01/17 00:20:26;;;;;;;26.27;12.68;;;;;;;-1.44;67.29;98852.13;1740290;82;21049;-42
2022/01/17 00:22:54;;;;;;;24.95;12.37;;;;;;;-1.43;67.06;98853.70;1813862;79;20956;-42
2022/01/17 00:25:21;;;;;;;22.75;11.70;;;;;;;-1.39;67.01;98843.27;1725980;82;21092;-42
2022/01/17 00:27:48;;;;;;;26.33;12.07;;;;;;;-1.37;66.77;98841.91;1778195;79;21153;-42
2022/01/17 00:30:15;;;;;;;26.42;13.10;;;;;;;-1.35;66.82;98839.73;1754768;80;20961;-42
2022/01/17 00:32:43;;;;;;;23.87;12.82;;;;;;;-1.31;66.80;98836.72;1786773;79;21033;-42
2022/01/17 00:35:10;;;;;;;23.55;11.95;;;;;;;-1.24;66.78;98829.70;1789546;79;21224;-42
2022/01/17 00:37:38;;;;;;;20.60;12.05;;;;;;;-1.20;66.42;98825.90;1772234;79;21331;-42
2022/01/17 00:40:07;;;;;;;23.98;12.18;;;;;;;-1.16;66.22;98822.92;1691516;82;21579;-42
2022/01/17 00:42:35;;;;;;;;;;;;;;;-1.12;66.12;98814.05;1786479;79;20969;-42
2022/01/17 00:45:05;;;;;;;23.65;11.60;;;;;;;-1.09;66.01;98810.00;1779439;79;20128;-42
2022/01/17 00:47:30;;;;;;;27.30;11.55;;;;;;;-1.15;66.12;98798.67;1771403;79;21080;-42
2022/01/17 00:49:57;;;;;;;24.07;11.68;;;;;;;-1.11;65.72;98791.66;1777663;79;21440;-42
2022/01/17 00:52:23;;;;;;;27.00;12.20;;;;;;;-1.06;65.77;98789.44;1781993;79;21796;-42
2022/01/17 00:54:50;;;;;;;22.58;13.03;;;;;;;-1.02;65.77;98788.58;1781382;79;20997;-42
2022/01/17 00:57:17;;;;;;;22.35;11.88;;;;;;;-0.98;65.63;98790.09;1756781;80;21029;-42
2022/01/17 00:59:45;;;;;;;26.15;10.95;;;;;;;-0.95;65.60;98784.17;1773409;79;21013;-42
2022/01/17 01:02:12;;;;;;;25.45;12.05;;;;;;;-0.90;65.54;98782.73;1777674;80;21574;-42
2022/01/17 01:04:39;;;;;;;24.55;11.85;;;;;;;-0.87;65.45;98773.61;1789362;79;21931;-42
2022/01/17 01:07:06;;;;;;;23.50;11.33;;;;;;;-0.83;65.40;98776.48;1765997;79;20993;-42
2022/01/17 01:09:43;;;;;;;26.25;11.57;;;;;;;-0.81;65.48;98766.30;1804635;79;20957;-42
2022/01/17 01:12:04;;;;;;;23.02;10.95;;;;;;;-0.79;65.47;98766.81;1803274;79;21595;-42
2022/01/17 01:14:30;;;;;;;21.00;11.60;;;;;;;-0.76;65.55;98767.53;1773912;79;21053;-42
2022/01/17 01:17:06;;;;;;;23.65;11.78;;;;;;;-0.71;65.63;98762.64;1748126;80;21041;-42
2022/01/17 01:19:27;;;;;;;24.30;12.50;;;;;;;-0.69;65.49;98763.92;1763840;80;21530;-42
2022/01/17 01:27:54;;;;;;;21.12;11.80;;;;;;;-0.61;65.38;98771.73;1754421;80;20981;-42
2022/01/17 01:29:57;;;;;;;23.12;11.28;;;;;;;-0.58;65.61;98767.16;1775696;79;21166;-43
2022/01/17 01:32:27;;;;;;;22.45;11.83;;;;;;;-0.56;65.75;98764.42;1772942;79;21073;-42
2022/01/17 01:34:54;;;;;;;26.65;12.13;;;;;;;-0.55;66.02;98764.67;1758793;80;21001;-42
2022/01/17 01:37:19;;;;;;;27.13;12.23;;;;;;;-0.55;67.06;98760.68;1756830;79;20986;-42
2022/01/17 01:39:49;;;;;;;20.95;11.40;;;;;;;-0.55;67.70;98748.70;1777000;79;21037;-42
2022/01/17 01:42:17;;;;;;;26.68;12.50;;;;;;;-0.55;68.60;98731.39;1766990;79;21147;-42
2022/01/17 01:44:43;;;;;;;26.73;13.28;;;;;;;-0.58;69.50;98717.34;1764439;80;21237;-42
2022/01/17 01:47:09;;;;;;;25.15;12.73;;;;;;;-0.60;70.56;98702.77;1708253;82;21512;-42
2022/01/17 01:49:36;;;;;;;29.87;12.90;;;;;;;-0.64;71.49;98689.83;1797408;79;21021;-42
2022/01/17 01:52:03;;;;;;;23.83;12.93;;;;;;;-0.68;71.98;98672.34;1800150;79;21052;-42
2022/01/17 01:54:30;;;;;;;26.90;13.20;;;;;;;-0.69;72.62;98662.78;1762390;79;21101;-42
2022/01/17 01:56:57;;;;;;;34.88;14.03;;;;;;;-0.69;72.96;98650.81;1765754;79;21001;-42
2022/01/17 01:59:25;;;;;;;28.30;14.28;;;;;;;-0.67;73.10;98649.16;1707523;82;21010;-42
2022/01/17 02:01:52;;;;;;;28.47;13.53;;;;;;;-0.66;73.23;98666.70;1801598;79;21240;-43
2022/01/17 02:04:18;;;;;;;27.22;13.55;;;;;;;-1.04;73.59;98609.06;1708596;82;21127;-43
2022/01/17 02:06:46;;;;;;;22.80;12.70;;;;;;;-0.71;73.67;98637.55;1769952;79;21149;-42
2022/01/17 02:09:12;;;;;;;27.17;13.28;;;;;;;-0.74;74.00;98636.29;1770279;80;21591;-42
2022/01/17 02:11:39;;;;;;;22.82;12.43;;;;;;;-0.72;73.93;98634.64;1777444;79;20994;-42
2022/01/17 02:14:06;;;;;;;26.90;12.95;;;;;;;-0.74;74.06;98616.33;1720537;82;21607;-42
2022/01/17 02:16:33;;;;;;;25.27;12.30;;;;;;;-0.72;73.85;98611.47;1763338;80;21021;-42
2022/01/17 02:18:59;;;;;;;27.50;13.58;;;;;;;-0.70;73.67;98602.66;1767094;80;21052;-42
2022/01/17 02:21:49;;;;;;;31.45;14.05;;;;;;;-0.70;73.34;98598.66;1776120;79;20997;-42
2022/01/17 02:24:20;;;;;;;24.72;12.80;;;;;;;-0.68;73.16;98604.48;1794259;79;20966;-42
2022/01/17 02:26:49;;;;;;;22.22;11.83;;;;;;;-0.66;73.01;98596.17;1743902;80;21515;-42
2022/01/17 02:29:15;;;;;;;26.68;13.15;;;;;;;-0.67;72.82;98598.58;1755915;81;21014;-42
2022/01/17 02:31:43;;;;;;;28.38;12.95;;;;;;;-0.66;72.65;98582.32;1763821;81;21124;-42
2022/01/17 02:34:10;;;;;;;25.75;13.25;;;;;;;-0.64;72.52;98572.17;1764927;79;21551;-42
2022/01/17 02:36:38;;;;;;;27.75;13.55;;;;;;;-0.62;72.38;98573.96;1767394;79;20942;-42
2022/01/17 02:39:04;;;;;;;23.90;12.28;;;;;;;-0.62;72.20;98554.00;1769883;79;21000;-42
2022/01/17 02:41:36;;;;;;;26.62;13.45;;;;;;;-0.61;72.05;98557.45;1801491;79;20994;-42
2022/01/17 02:44:04;;;;;;;24.92;13.35;;;;;;;-0.61;72.00;98556.91;1745239;80;21111;-42
2022/01/17 02:46:30;;;;;;;27.75;14.13;;;;;;;-0.60;71.69;98546.50;1774351;79;20957;-42
2022/01/17 02:49:00;;;;;;;29.87;13.60;;;;;;;-0.59;71.52;98534.77;1764237;79;21013;-42
2022/01/17 02:51:27;;;;;;;30.83;14.57;;;;;;;-0.59;71.48;98541.42;1762460;79;20991;-43
2022/01/17 02:53:54;;;;;;;25.20;13.00;;;;;;;-0.60;71.38;98533.20;1768626;79;21056;-42
2022/01/17 02:56:21;;;;;;;26.33;13.93;;;;;;;-0.59;71.31;98524.13;1753125;80;21139;-43
2022/01/17 02:58:47;;;;;;;29.02;13.22;;;;;;;-0.58;71.24;98517.69;1773904;80;20981;-42
2022/01/17 03:01:18;;;;;;;33.38;14.98;;;;;;;-0.55;70.89;98514.42;1767621;79;21946;-42
2022/01/17 03:03:44;;;;;;;28.55;13.88;;;;;;;-0.51;70.70;98509.27;1699774;82;21049;-42
2022/01/17 03:06:12;;;;;;;30.72;13.95;;;;;;;-0.49;70.48;98505.77;1765354;79;21492;-42
2022/01/17 03:08:40;;;;;;;31.82;13.48;;;;;;;-0.46;70.04;98510.47;1804616;79;21105;-42
2022/01/17 03:11:12;;;;;;;24.60;13.22;;;;;;;-0.45;69.77;98508.84;1813604;79;20909;-43
2022/01/17 03:13:39;;;;;;;26.40;13.05;;;;;;;-0.40;69.67;98515.11;1751451;81;21539;-42
2022/01/17 03:16:12;;;;;;;29.98;14.20;;;;;;;-0.37;69.37;98504.62;1751037;82;21076;-42
2022/01/17 03:18:42;;;;;;;24.55;12.47;;;;;;;-0.34;69.08;98499.24;1768075;79;21048;-43
2022/01/17 03:21:11;;;;;;;26.15;13.03;;;;;;;-0.31;68.75;98486.63;1781690;80;21111;-42
2022/01/17 03:23:39;;;;;;;23.05;12.85;;;;;;;-0.28;68.31;98480.12;1813785;79;21030;-43
2022/01/17 03:26:06;;;;;;;28.32;13.58;;;;;;;-0.23;68.13;98476.53;1814242;79;21032;-42
2022/01/17 03:28:33;;;;;;;25.82;12.23;;;;;;;-0.19;67.92;98477.48;1809246;79;21024;-42
2022/01/17 03:30:59;;;;;;;22.80;12.68;;;;;;;-0.14;67.57;98457.36;1813927;79;21014;-42
2022/01/17 03:33:26;;;;;;;21.68;11.50;;;;;;;-0.10;67.05;98470.31;1725951;82;21176;-42
2022/01/17 03:35:53;;;;;;;26.30;11.80;;;;;;;-0.06;66.53;98445.95;1782639;79;21480;-42
2022/01/17 03:38:21;;;;;;;25.27;12.13;;;;;;;-0.04;66.47;98443.73;1760320;79;21068;-42
2022/01/17 03:40:50;;;;;;;19.42;10.75;;;;;;;0.00;66.12;98434.81;1789668;79;21024;-43
2022/01/17 03:43:17;;;;;;;25.00;11.35;;;;;;;0.03;65.94;98428.09;1708067;82;21522;-42
2022/01/17 03:45:45;;;;;;;24.98;12.73;;;;;;;0.07;65.77;98425.03;1690628;83;22034;-42
2022/01/17 03:48:13;;;;;;;24.37;11.80;;;;;;;0.09;65.70;98410.86;1776465;80;20957;-42
2022/01/17 03:50:40;;;;;;;22.77;11.03;;;;;;;0.12;65.61;98417.42;1767352;80;20976;-42
2022/01/17 03:53:06;;;;;;;23.22;11.78;;;;;;;0.13;65.19;98416.33;1775224;80;20925;-42
2022/01/17 03:55:34;;;;;;;19.67;10.63;;;;;;;0.16;64.84;98416.48;1767018;79;21061;-42
2022/01/17 03:58:03;;;;;;;19.82;10.60;;;;;;;0.21;64.77;98407.55;1777579;79;21822;-42
2022/01/17 04:00:34;;;;;;;26.48;10.43;;;;;;;0.22;64.11;98408.57;1781911;80;21003;-42
2022/01/17 04:03:00;;;;;;;18.85;10.13;;;;;;;0.24;64.37;98409.02;1757396;80;20957;-42
2022/01/17 04:05:27;;;;;;;19.20;10.45;;;;;;;0.25;64.69;98393.27;1790172;79;20993;-43
2022/01/17 04:07:54;;;;;;;20.45;9.93;;;;;;;0.23;64.93;98390.16;1782965;80;21006;-42
2022/01/17 04:10:21;;;;;;;20.43;10.28;;;;;;;0.24;65.75;98391.70;1757424;80;21136;-43
2022/01/17 04:12:47;;;;;;;22.15;10.88;;;;;;;0.22;66.29;98389.91;1776218;79;21655;-42
2022/01/17 04:15:14;;;;;;;19.40;11.15;;;;;;;0.19;67.21;98371.90;1756146;80;21036;-42
2022/01/17 04:17:42;;;;;;;22.42;12.13;;;;;;;0.16;68.10;98400.49;1774442;79;20985;-42
2022/01/17 04:20:15;;;;;;;23.38;12.37;;;;;;;0.14;68.85;98408.03;1775671;80;21702;-42
2022/01/17 04:22:49;;;;;;;22.00;11.57;;;;;;;0.10;69.67;98408.41;1752162;80;21938;-43
2022/01/17 04:25:12;;;;;;;20.25;10.70;;;;;;;0.07;70.15;98407.70;1751057;80;21012;-43
2022/01/17 04:27:39;;;;;;;24.32;11.08;;;;;;;0.04;70.75;98404.34;1763801;79;20998;-42
2022/01/17 04:30:07;;;;;;;22.20;12.35;;;;;;;0.03;71.23;98405.98;1751329;82;21520;-43
2022/01/17 04:32:34;;;;;;;19.82;11.05;;;;;;;-0.01;72.21;98393.30;1763072;80;20925;-42
2022/01/17 04:35:02;;;;;;;23.67;11.83;;;;;;;-0.04;72.91;98398.45;1767563;79;21113;-42
2022/01/17 04:37:29;;;;;;;25.30;12.00;;;;;;;-0.09;73.57;98379.95;1781048;79;20972;-43
2022/01/17 04:39:55;;;;;;;22.45;11.70;;;;;;;-0.13;73.90;98371.81;1752281;80;21016;-43
2022/01/17 04:42:27;;;;;;;21.48;12.30;;;;;;;-0.15;74.27;98383.89;1787353;79;20981;-43
2022/01/17 04:45:08;;;;;;;22.67;11.70;;;;;;;-0.16;74.49;98378.32;1772619;79;21024;-42
2022/01/17 04:47:36;;;;;;;22.50;12.33;;;;;;;-0.17;74.65;98370.87;1764532;80;21160;-43
2022/01/17 04:50:09;;;;;;;24.27;12.63;;;;;;;-0.19;74.83;98356.28;1751293;82;20906;-43
2022/01/17 04:52:36;;;;;;;21.77;12.33;;;;;;;-0.19;75.01;98360.28;1802586;79;21013;-42
2022/01/17 04:55:05;;;;;;;21.17;11.08;;;;;;;-0.22;75.06;98340.95;1772404;79;20965;-42
2022/01/17 04:57:32;;;;;;;20.68;11.80;;;;;;;-0.21;75.11;98335.86;1775963;79;21033;-42
2022/01/17 04:59:58;;;;;;;21.33;11.08;;;;;;;-0.20;75.15;98318.78;1781506;79;21137;-42
2022/01/17 05:02:25;;;;;;;20.65;11.88;;;;;;;-0.19;75.12;98313.12;1782210;79;21023;-42
2022/01/17 05:04:53;;;;;;;20.15;11.20;;;;;;;-0.17;75.12;98313.61;1770246;79;21042;-42
2022/01/17 05:07:20;;;;;;;20.50;11.33;;;;;;;-0.15;75.16;98306.09;1711938;82;20993;-43
2022/01/17 05:09:47;;;;;;;21.90;11.48;;;;;;;-0.13;75.10;98299.11;1751618;81;21049;-43
2022/01/17 05:12:14;;;;;;;25.27;12.53;;;;;;;-0.12;75.22;98291.35;1731142;81;21352;-43
2022/01/17 05:14:46;;;;;;;23.30;11.57;;;;;;;-0.12;75.28;98300.13;1723568;82;20917;-43
2022/01/17 05:17:58;;;;;;;24.17;12.33;;;;;;;-0.10;75.27;98297.16;1721537;83;21053;-42
2022/01/17 05:19:49;;;;;;;24.27;12.28;;;;;;;-0.08;75.20;98311.72;1723818;81;21084;-42
2022/01/17 05:22:17;;;;;;;24.00;12.25;;;;;;;-0.07;75.08;98306.63;1743296;81;21017;-42
2022/01/17 05:24:43;;;;;;;26.00;13.10;;;;;;;-0.07;74.90;98305.84;1700974;83;21137;-42
2022/01/17 05:27:10;;;;;;;22.22;12.10;;;;;;;-0.04;74.75;98290.00;1714767;81;21073;-42
2022/01/17 05:29:37;;;;;;;21.25;11.78;;;;;;;-0.03;74.68;98293.45;1716096;81;21072;-43
2022/01/17 05:32:05;;;;;;;26.85;12.33;;;;;;;0.00;74.62;98272.28;1719613;83;21042;-42
2022/01/17 05:34:40;;;;;;;20.08;12.33;;;;;;;0.01;74.97;98265.08;1722470;81;21037;-42
2022/01/17 05:37:04;;;;;;;23.57;12.50;;;;;;;0.04;75.40;98275.12;1705454;82;21175;-42
2022/01/17 05:39:31;;;;;;;26.82;12.13;;;;;;;0.05;75.34;98273.24;1780154;80;20945;-42
2022/01/17 05:41:57;;;;;;;27.10;12.75;;;;;;;0.04;75.23;98264.46;1771467;80;20955;-42
2022/01/17 05:44:24;;;;;;;24.18;12.98;;;;;;;0.07;74.80;98264.36;1767120;80;21031;-43
2022/01/17 05:46:51;;;;;;;26.27;13.50;;;;;;;0.10;74.71;98262.41;1773542;80;21056;-43
2022/01/17 05:49:19;;;;;;;26.45;13.25;;;;;;;0.11;74.50;98255.96;1781578;80;21575;-43
2022/01/17 05:51:46;;;;;;;29.85;13.98;;;;;;;0.13;74.31;98246.56;1773810;80;21017;-42
2022/01/17 05:54:12;;;;;;;24.12;13.93;;;;;;;0.16;74.09;98248.58;1786936;79;21539;-42
2022/01/17 05:56:39;;;;;;;25.25;12.90;;;;;;;0.18;73.86;98242.95;1744309;82;21476;-42
2022/01/17 05:59:05;;;;;;;28.85;13.43;;;;;;;0.21;73.65;98237.75;1749593;79;21080;-42
2022/01/17 06:01:32;;;;;;;22.60;13.03;;;;;;;0.25;73.51;98234.68;1742601;82;21144;-42
2022/01/17 06:03:59;;;;;;;25.43;13.45;;;;;;;0.30;73.25;98235.05;1769566;79;20988;-42
2022/01/17 06:06:26;;;;;;;24.82;13.70;;;;;;;0.32;72.99;98223.53;1745769;79;21049;-42
2022/01/17 06:08:52;;;;;;;24.12;13.50;;;;;;;0.37;72.86;98230.81;1743723;79;21542;-42
2022/01/17 06:11:19;;;;;;;24.00;13.72;;;;;;;0.38;72.78;98224.38;1767404;79;20985;-42
2022/01/17 06:13:46;;;;;;;30.05;14.63;;;;;;;0.39;72.65;98220.59;1787624;79;21532;-43
2022/01/17 06:16:15;;;;;;;25.90;12.98;;;;;;;0.42;72.45;98223.18;1786765;79;21064;-42
2022/01/17 06:18:41;;;;;;;29.45;14.53;;;;;;;0.43;72.47;98221.53;1755368;81;20989;-43
2022/01/17 06:21:08;;;;;;;25.17;13.38;;;;;;;0.45;72.28;98217.20;1717154;82;21024;-43
2022/01/17 06:23:35;;;;;;;29.70;16.00;;;;;;;0.48;72.21;98215.24;1766062;81;21037;-43
2022/01/17 06:26:02;;;;;;;25.75;14.73;;;;;;;0.51;72.07;98212.47;1752546;81;21132;-43
2022/01/17 06:28:30;;;;;;;37.80;21.00;;;;;;;0.51;71.81;98197.80;1740875;81;21020;-42
2022/01/17 06:30:57;;;;;;;26.35;14.30;;;;;;;0.54;71.75;98195.81;1723406;83;21021;-43
2022/01/17 06:33:24;;;;;;;31.70;15.75;;;;;;;0.55;71.64;98195.50;1723186;83;20973;-43
2022/01/17 06:35:50;;;;;;;28.30;15.20;;;;;;;0.55;71.59;98182.72;1721748;81;21023;-42
2022/01/17 06:38:17;;;;;;;21.12;13.18;;;;;;;0.58;71.66;98183.43;1752742;81;21109;-43
2022/01/17 06:40:43;;;;;;;24.18;14.15;;;;;;;0.57;71.46;98167.20;1748487;81;21041;-43
2022/01/17 06:43:10;;;;;;;26.85;14.33;;;;;;;0.59;71.42;98155.09;1753407;81;21572;-43
2022/01/17 06:45:38;;;;;;;25.37;14.40;;;;;;;0.61;71.25;98136.89;1756634;81;21664;-43
2022/01/17 06:48:08;;;;;;;27.40;14.10;;;;;;;0.63;71.21;98137.33;1756607;81;21055;-43
2022/01/17 06:50:35;;;;;;;26.90;14.33;;;;;;;0.67;71.15;98137.48;1750132;81;21144;-43
2022/01/17 06:53:03;;;;;;;27.07;14.30;;;;;;;0.66;71.07;98114.58;1764841;80;21012;-42
2022/01/17 06:55:30;;;;;;;25.72;14.05;;;;;;;0.67;71.25;98091.59;1753613;81;21532;-43
2022/01/17 06:57:57;;;;;;;29.90;17.32;;;;;;;0.72;71.20;98079.95;1766885;81;21473;-42
2022/01/17 07:00:23;;;;;;;28.27;15.80;;;;;;;0.74;71.20;98077.72;1766004;81;21470;-42
2022/01/17 07:02:50;;;;;;;27.70;16.12;;;;;;;0.73;71.11;98078.27;1766192;81;21791;-43
2022/01/17 07:05:17;;;;;;;26.60;14.83;;;;;;;0.78;71.19;98103.97;1757580;81;21037;-42
2022/01/17 07:07:45;;;;;;;25.90;15.00;;;;;;;0.78;71.34;98152.77;1764151;81;21033;-43
2022/01/17 07:10:12;;;;;;;30.45;15.93;;;;;;;0.81;71.41;98182.03;1771596;79;21380;-42
2022/01/17 07:12:38;;;;;;;29.42;16.15;;;;;;;0.84;71.47;98180.04;1776816;80;21036;-43
2022/01/17 07:15:07;;;;;;;27.65;16.30;;;;;;;0.84;71.42;98179.48;1766507;80;21482;-43
2022/01/17 07:17:35;;;;;;;33.73;18.87;;;;;;;0.88;71.29;98174.28;1772810;80;20977;-43
2022/01/17 07:20:02;;;;;;;28.17;16.37;;;;;;;0.90;71.30;98146.73;1771321;80;20943;-43
2022/01/17 07:22:31;;;;;;;64.85;32.78;;;;;;;0.92;71.31;98137.83;1769216;80;21501;-43
2022/01/17 07:25:00;;;;;;;29.55;16.30;;;;;;;0.94;71.33;98114.28;1769134;80;21561;-43
2022/01/17 07:27:26;;;;;;;30.65;16.97;;;;;;;0.97;71.32;98084.27;1765182;80;21127;-43
2022/01/17 07:29:53;;;;;;;27.87;17.12;;;;;;;0.96;71.31;98049.37;1769759;80;21044;-43
2022/01/17 07:32:20;;;;;;;27.35;15.90;;;;;;;0.97;71.47;98029.56;1779462;80;21038;-43
2022/01/17 07:34:47;;;;;;;38.30;20.55;;;;;;;1.00;71.56;98019.59;1755264;80;20945;-43
2022/01/17 07:37:14;;;;;;;72.20;36.73;;;;;;;1.01;71.79;98011.81;1782024;80;21115;-43
2022/01/17 07:39:43;;;;;;;31.25;18.57;;;;;;;1.04;71.80;98040.50;1781749;80;21144;-43
2022/01/17 07:42:10;;;;;;;35.03;20.08;;;;;;;1.05;72.06;98034.06;1766341;80;20966;-43
2022/01/17 07:44:40;;;;;;;26.93;16.27;;;;;;;1.06;72.09;98039.63;1759365;80;20997;-43
2022/01/17 07:47:15;;;;;;;39.42;21.95;;;;;;;1.05;72.24;98047.41;1777665;80;20989;-43
2022/01/17 07:49:35;;;;;;;50.43;28.87;;;;;;;1.09;72.35;98062.98;1768839;80;21536;-43
2022/01/17 07:52:05;;;;;;;29.80;17.67;;;;;;;1.11;72.33;98070.13;1711165;83;21532;-43
2022/01/17 07:54:36;;;;;;;29.15;17.45;;;;;;;1.15;72.24;98083.03;1778088;79;21004;-43
2022/01/17 07:57:04;;;;;;;26.07;16.65;;;;;;;1.17;72.28;98096.03;1773419;79;20906;-43
2022/01/17 07:59:31;;;;;;;27.62;17.00;;;;;;;1.17;72.34;98076.79;1769325;80;21480;-43
2022/01/17 08:02:00;;;;;;;32.53;17.85;;;;;;;1.18;72.42;98054.33;1775108;80;21091;-43
2022/01/17 08:04:27;;;;;;;27.25;16.40;;;;;;;1.20;72.36;98048.13;1759684;79;21064;-43
2022/01/17 08:06:53;;;;;;;32.33;17.42;;;;;;;1.20;72.47;98030.77;1792788;79;20981;-43
2022/01/17 08:09:25;;;;;;;29.60;17.62;;;;;;;1.23;72.45;98030.10;1713925;81;20973;-43
2022/01/17 08:11:52;;;;;;;32.90;18.12;;;;;;;1.23;72.47;98014.09;1675373;84;21877;-43
2022/01/17 08:14:23;;;;;;;29.33;18.80;;;;;;;1.23;72.58;97997.28;1774062;80;21000;-43
2022/01/17 08:16:50;;;;;;;40.33;23.02;;;;;;;1.23;72.62;97988.73;1770229;79;21102;-43
2022/01/17 08:22:04;;;;;;;30.82;18.77;;;;;;;1.24;72.82;97993.52;1778824;78;22830;-42
2022/01/17 08:24:32;;;;;;;28.77;16.80;;;;;;;1.14;73.03;97950.67;1753352;80;20973;-42
2022/01/17 08:26:59;;;;;;;31.15;18.90;;;;;;;1.15;73.11;97954.91;1783052;80;21029;-43
2022/01/17 08:29:26;;;;;;;35.88;21.82;;;;;;;1.16;73.27;97953.78;1770823;80;20957;-42
2022/01/17 08:31:56;;;;;;;30.72;19.32;;;;;;;1.19;73.22;97945.13;1762758;80;20953;-42
2022/01/17 08:34:22;;;;;;;29.30;18.80;;;;;;;1.19;73.22;97962.48;1735213;81;20989;-42
2022/01/17 08:36:49;;;;;;;31.20;18.73;;;;;;;1.19;73.21;97959.80;1727628;81;20980;-42
2022/01/17 08:39:16;;;;;;;32.45;20.08;;;;;;;1.13;73.22;97950.45;1723508;83;21793;-42
2022/01/17 08:41:42;;;;;;;35.63;21.75;;;;;;;1.24;73.12;97934.23;1712711;83;20942;-42
2022/01/17 08:44:12;;;;;;;29.23;18.10;;;;;;;1.23;72.98;97935.34;1703230;84;21002;-42
2022/01/17 08:46:40;;;;;;;22.07;14.10;;;;;;;1.25;72.97;97943.02;1719084;81;21080;-42
2022/01/17 08:49:06;;;;;;;34.78;20.23;;;;;;;1.28;72.81;97933.78;1723189;83;21004;-42
2022/01/17 08:51:33;;;;;;;31.68;19.27;;;;;;;1.28;72.63;97965.03;1729375;81;21143;-43
2022/01/17 08:53:59;;;;;;;28.57;16.37;;;;;;;1.30;72.59;97955.60;1723027;83;21559;-39
2022/01/17 08:56:29;;;;;;;28.32;18.25;;;;;;;1.31;72.44;97939.78;1720955;81;21023;-43
2022/01/17 08:58:54;;;;;;;28.52;17.75;;;;;;;1.33;72.41;97946.13;1705939;83;20980;-41
2022/01/17 09:01:22;;;;;;;30.27;17.77;;;;;;;1.34;72.42;97953.59;1728806;81;21061;-40
2022/01/17 09:03:51;;;;;;;25.33;16.07;;;;;;;1.37;72.39;97940.90;1673971;83;21119;-39
2022/01/17 09:06:17;;;;;;;33.50;20.60;;;;;;;1.38;72.33;97923.77;1705380;84;21010;-40
2022/01/17 09:08:44;;;;;;;31.15;18.45;;;;;;;1.35;72.31;97916.44;1723641;82;20945;-39
2022/01/17 09:11:10;;;;;;;24.12;16.87;;;;;;;1.38;72.23;97896.52;1737741;82;21024;-39
2022/01/17 09:13:37;;;;;;;24.30;16.85;;;;;;;1.41;72.20;97907.08;1720926;82;21077;-39
2022/01/17 09:16:05;;;;;;;26.73;16.42;;;;;;;1.42;72.20;97889.95;1713531;82;21150;-40
2022/01/17 09:18:32;;;;;;;26.25;16.97;;;;;;;1.41;72.15;97867.80;1711853;83;21021;-39
2022/01/17 09:20:59;;;;;;;27.62;17.37;;;;;;;1.42;72.20;97857.91;1718098;82;21504;-39
2022/01/17 09:23:26;;;;;;;30.10;18.98;;;;;;;1.42;72.17;97849.34;1721016;83;20996;-39
2022/01/17 09:25:53;;;;;;;26.82;17.62;;;;;;;1.44;72.30;97842.34;1718390;83;21026;-40
2022/01/17 09:28:20;;;;;;;27.60;17.92;;;;;;;1.44;72.26;97847.12;1691885;83;21617;-39
2022/01/17 09:30:47;;;;;;;28.00;16.75;;;;;;;1.44;72.12;97836.45;1693803;83;21096;-40
2022/01/17 09:33:13;;;;;;;22.77;15.32;;;;;;;1.42;72.05;97831.98;1708867;83;21029;-40
2022/01/17 09:35:40;;;;;;;24.18;15.93;;;;;;;1.44;72.11;97843.13;1716727;83;21088;-40
2022/01/17 09:38:07;;;;;;;24.10;16.27;;;;;;;1.46;72.10;97833.41;1716881;83;20986;-39
2022/01/17 09:40:34;;;;;;;24.25;16.05;;;;;;;1.45;72.03;97835.89;1720498;83;21207;-39
2022/01/17 09:43:02;;;;;;;30.62;19.15;;;;;;;1.48;72.02;97817.30;1717691;82;21053;-39
2022/01/17 09:45:30;;;;;;;23.73;16.10;;;;;;;1.48;72.11;97809.84;1703559;83;21073;-40
2022/01/17 09:47:56;;;;;;;24.87;16.70;;;;;;;1.49;72.16;97804.72;1702882;83;20981;-40
2022/01/17 09:50:33;;;;;;;26.65;16.57;;;;;;;1.49;72.16;97794.04;1693633;83;21018;-39
2022/01/17 09:52:53;;;;;;;27.40;15.93;;;;;;;1.49;71.98;97798.05;1695256;83;21481;-39
2022/01/17 09:55:24;;;;;;;24.82;15.93;;;;;;;1.50;72.02;97793.69;1748690;82;21507;-39
2022/01/17 09:58:02;;;;;;;;;;;;;;;1.50;72.11;97783.00;1726887;82;21021;-39
2022/01/17 10:00:32;;;;;;;25.02;15.03;;;;;;;1.51;72.01;97774.44;1750534;81;20145;-40
2022/01/17 10:03:02;;;;;;;30.92;18.75;;;;;;;1.44;72.38;97772.91;1731940;82;21050;-39
2022/01/17 10:05:29;;;;;;;;;;;;;;;1.50;72.30;97782.25;1713569;83;21135;-39
2022/01/17 10:08:16;;;;;;;28.47;17.52;;;;;;;1.53;72.07;97762.88;1702456;84;20178;-39
2022/01/17 10:10:57;;;;;;;28.32;16.85;;;;;;;1.50;72.34;97774.23;1678909;84;20922;-40
2022/01/17 10:13:34;;;;;;;25.65;15.68;;;;;;;1.54;72.11;97752.41;1702462;84;21042;-40
2022/01/17 10:16:06;;;;;;;25.05;16.25;;;;;;;1.58;72.15;97751.95;1701939;84;21010;-41
2022/01/17 10:19:00;;;;;;;24.98;15.85;;;;;;;1.60;72.02;97736.34;1702418;84;21131;-41
2022/01/17 10:21:46;;;;;;;24.37;15.65;;;;;;;1.63;71.75;97738.36;1705701;82;20986;-41
2022/01/17 10:27:16;;;;;;;24.02;15.45;;;;;;;1.64;71.79;97717.21;1732544;82;20998;-41
2022/01/17 10:35:24;;;;;;;96.53;51.25;;;;;;;1.67;71.61;97691.14;1702920;82;21538;-41
2022/01/17 10:38:14;;;;;;;32.53;21.00;;;;;;;1.69;71.73;97676.90;1717835;83;21021;-41
2022/01/17 10:40:50;;;;;;;38.17;22.00;;;;;;;1.68;71.79;97682.80;1716946;83;21527;-41
2022/01/17 10:43:25;;;;;;;33.45;20.48;;;;;;;1.69;71.65;97671.56;1723253;82;21056;-41
2022/01/17 10:45:53;;;;;;;40.35;23.38;;;;;;;1.70;71.79;97651.72;1707829;83;21913;-41
2022/01/17 10:48:20;;;;;;;67.47;38.17;;;;;;;1.71;71.64;97636.69;1703834;83;21025;-41
2022/01/17 10:50:49;;;;;;;25.90;17.40;;;;;;;1.73;71.60;97618.99;1707957;83;20981;-41
2022/01/17 10:53:16;;;;;;;28.20;19.13;;;;;;;1.73;71.57;97621.11;1720903;82;21472;-41
2022/01/17 10:55:48;;;;;;;43.40;28.83;;;;;;;1.73;71.62;97625.67;1715165;82;21538;-41
2022/01/17 10:58:21;;;;;;;25.12;17.57;;;;;;;1.74;71.74;97616.55;1720568;83;21103;-41
2022/01/17 11:00:49;;;;;;;22.37;15.65;;;;;;;1.74;71.71;97613.88;1712717;83;21013;-41
2022/01/17 11:03:19;;;;;;;22.48;14.68;;;;;;;1.71;71.60;97604.64;1699933;82;21551;-41
2022/01/17 11:05:48;;;;;;;40.03;25.15;;;;;;;1.73;71.47;97606.97;1713810;82;21519;-41
2022/01/17 11:08:20;;;;;;;25.37;15.68;;;;;;;1.74;71.48;97603.19;1720994;83;21053;-41
2022/01/17 11:10:53;;;;;;;22.05;15.03;;;;;;;1.75;71.47;97596.70;1711469;82;21116;-41
2022/01/17 11:13:24;;;;;;;24.90;18.37;;;;;;;1.76;71.55;97600.94;1707763;83;21024;-41
2022/01/17 11:16:07;;;;;;;19.75;14.15;;;;;;;1.76;71.52;97584.91;1706135;83;20987;-41
2022/01/17 11:18:35;;;;;;;19.35;13.13;;;;;;;1.79;71.56;97586.91;1680053;84;20989;-41
2022/01/17 11:21:10;;;;;;;20.90;14.58;;;;;;;1.79;71.42;97573.55;1695603;83;21059;-41
2022/01/17 11:23:35;;;;;;;20.57;13.75;;;;;;;1.81;71.27;97571.29;1681801;83;21164;-41
2022/01/17 11:26:01;;;;;;;22.70;14.30;;;;;;;1.82;71.23;97566.17;1748683;81;20992;-41
2022/01/17 11:28:30;;;;;;;20.40;14.18;;;;;;;1.84;71.12;97557.81;1760584;80;21009;-41
2022/01/17 11:30:58;;;;;;;33.00;20.88;;;;;;;1.85;71.02;97556.11;1757655;80;20973;-41
2022/01/17 11:33:25;;;;;;;25.40;18.00;;;;;;;1.88;71.04;97537.30;1753947;80;20993;-41
2022/01/17 11:35:54;;;;;;;30.08;20.50;;;;;;;1.90;71.05;97529.13;1748531;80;21012;-41
2022/01/17 11:38:28;;;;;;;31.50;19.75;;;;;;;1.91;71.17;97526.68;1746114;82;20969;-41
2022/01/17 11:40:58;;;;;;;23.47;15.95;;;;;;;1.91;70.99;97518.66;1742690;80;21029;-41
2022/01/17 11:43:37;;;;;;;26.90;15.75;;;;;;;1.94;71.08;97511.84;1739986;80;20973;-41